Time;durP1;ratioP1;P1;durP2;ratioP2;P2;SDS_P1;SDS_P2;PMS_P1;PMS_P2;Temp;Humidity;BMP_temperature;BMP_pressure;BME280_temperature;BME280_humidity;BME280_pressure;Samples;Min_cycle;Max_cycle;Signal;HPM_P1;HPM_P2
2022/02/22 00:00:07;;;;;;;9.50;2.55;;;;;;;15.36;73.91;100787.78;2043852;29;20051;-77
2022/02/22 00:01:34;;;;;;;4.45;1.58;;;;;;;15.33;73.67;100783.34;2041058;29;20421;-77
2022/02/22 00:02:57;;;;;;;4.95;1.40;;;;;;;15.34;73.60;100787.78;2046010;29;20039;-77
2022/02/22 00:04:19;;;;;;;10.93;2.20;;;;;;;15.35;73.66;100786.91;2046050;28;20047;-77
2022/02/22 00:05:44;;;;;;;7.55;1.70;;;;;;;15.37;73.82;100784.19;2046265;28;20513;-77
2022/02/22 00:07:07;;;;;;;8.02;2.20;;;;;;;15.35;73.79;100786.91;2032349;29;20048;-77
2022/02/22 00:08:30;;;;;;;5.15;1.80;;;;;;;15.32;73.74;100776.25;2029714;29;20055;-77
2022/02/22 00:09:55;;;;;;;3.63;1.45;;;;;;;15.32;74.00;100783.34;2043299;29;20046;-77
2022/02/22 00:11:18;;;;;;;5.22;2.00;;;;;;;15.34;73.79;100789.56;2038172;29;20048;-77
2022/02/22 00:12:41;;;;;;;5.45;1.60;;;;;;;15.36;74.06;100798.41;2043301;29;20134;-77
2022/02/22 00:14:02;;;;;;;3.28;1.92;;;;;;;15.33;73.95;100783.34;2032719;29;20581;-77
2022/02/22 00:15:25;;;;;;;9.63;2.08;;;;;;;15.36;73.96;100790.44;2027729;29;20043;-77
2022/02/22 00:16:48;;;;;;;6.82;2.15;;;;;;;15.33;74.03;100791.31;2035711;29;20056;-77
2022/02/22 00:18:11;;;;;;;7.32;1.73;;;;;;;15.33;74.08;100793.09;2036886;29;20051;-77
2022/02/22 00:19:33;;;;;;;7.13;1.90;;;;;;;15.34;74.25;100794.88;2040732;28;20046;-77
2022/02/22 00:20:57;;;;;;;4.28;1.35;;;;;;;15.35;74.30;100788.66;2050716;28;20035;-77
2022/02/22 00:22:20;;;;;;;7.80;1.70;;;;;;;15.34;73.98;100786.88;2046872;29;20449;-77
2022/02/22 00:23:41;;;;;;;3.38;1.10;;;;;;;15.33;73.93;100787.78;2040497;29;20047;-77
2022/02/22 00:25:06;;;;;;;5.00;1.45;;;;;;;15.32;73.92;100786.00;2040765;29;20051;-77
2022/02/22 00:26:28;;;;;;;5.13;1.45;;;;;;;15.30;74.33;100793.97;2037923;29;20095;-77
2022/02/22 00:27:51;;;;;;;5.22;1.30;;;;;;;15.28;74.19;100779.81;2034998;29;20488;-77
2022/02/22 00:29:15;;;;;;;6.22;1.58;;;;;;;15.30;73.74;100785.13;2035639;29;20039;-77
2022/02/22 00:30:38;;;;;;;6.90;2.25;;;;;;;15.29;74.23;100786.91;2039832;29;20056;-77
2022/02/22 00:32:01;;;;;;;4.72;1.60;;;;;;;15.28;73.98;100789.56;2022490;29;20048;-77
2022/02/22 00:33:24;;;;;;;5.38;2.67;;;;;;;15.28;73.97;100787.81;2041435;29;20138;-77
2022/02/22 00:34:45;;;;;;;4.20;1.58;;;;;;;15.27;73.70;100787.81;2037936;29;20106;-77
2022/02/22 00:36:09;;;;;;;6.00;1.67;;;;;;;15.27;73.63;100787.81;2044837;29;20062;-77
2022/02/22 00:37:32;;;;;;;4.82;1.48;;;;;;;15.24;73.37;100785.13;2045632;28;20134;-77
2022/02/22 00:38:55;;;;;;;7.93;1.92;;;;;;;15.24;73.32;100787.78;2044046;29;20054;-78
2022/02/22 00:40:18;;;;;;;4.03;1.27;;;;;;;15.24;73.18;100787.78;2037819;29;20051;-77
2022/02/22 00:41:41;;;;;;;5.80;1.40;;;;;;;15.23;73.17;100778.94;2038066;29;20052;-78
2022/02/22 00:43:03;;;;;;;6.60;1.92;;;;;;;15.22;73.10;100787.81;2045726;29;20039;-77
2022/02/22 00:44:27;;;;;;;5.38;1.63;;;;;;;15.20;72.91;100783.38;2037437;29;20043;-77
2022/02/22 00:45:49;;;;;;;5.93;1.67;;;;;;;15.18;73.08;100787.81;2038985;29;20063;-77
2022/02/22 00:47:11;;;;;;;6.50;1.58;;;;;;;15.15;72.78;100780.75;2037702;29;20138;-77
2022/02/22 00:48:33;;;;;;;7.80;1.40;;;;;;;15.13;73.45;100778.09;2050480;28;20491;-77
2022/02/22 00:49:56;;;;;;;5.63;2.30;;;;;;;15.12;72.83;100776.31;2047987;28;20070;-77
2022/02/22 00:51:20;;;;;;;6.63;2.05;;;;;;;15.12;73.06;100772.78;2037618;29;20535;-78
2022/02/22 00:52:44;;;;;;;3.45;1.40;;;;;;;15.09;72.81;100772.78;2037696;29;20051;-76
2022/02/22 00:54:05;;;;;;;6.95;2.25;;;;;;;15.04;73.04;100762.16;2039346;29;20500;-77
2022/02/22 00:55:28;;;;;;;7.18;1.88;;;;;;;15.02;72.85;100763.94;2031885;29;20056;-77
2022/02/22 00:56:51;;;;;;;7.63;2.55;;;;;;;14.99;72.93;100760.41;2040850;29;20593;-78
2022/02/22 00:58:13;;;;;;;5.10;1.23;;;;;;;14.97;73.22;100760.38;2045412;29;20043;-77
2022/02/22 00:59:36;;;;;;;4.43;1.20;;;;;;;14.95;73.28;100756.88;2045769;29;20446;-77
2022/02/22 01:00:57;;;;;;;5.78;1.77;;;;;;;14.94;73.54;100767.50;2042322;29;20055;-77
2022/02/22 01:02:20;;;;;;;2.65;1.25;;;;;;;14.89;73.60;100753.34;2040286;29;20052;-77
2022/02/22 01:03:43;;;;;;;3.45;1.48;;;;;;;14.90;73.21;100769.25;2040550;29;20524;-77
2022/02/22 01:05:07;;;;;;;4.00;1.55;;;;;;;14.86;73.41;100772.81;2029776;29;20051;-77
2022/02/22 01:06:32;;;;;;;8.63;2.60;;;;;;;14.86;73.79;100761.31;2035056;29;20099;-77
2022/02/22 01:07:54;;;;;;;6.40;1.73;;;;;;;14.83;73.74;100764.88;2048755;28;20035;-77
2022/02/22 01:09:17;;;;;;;3.28;1.15;;;;;;;14.82;73.71;100773.72;2048261;28;20051;-76
2022/02/22 01:10:40;;;;;;;6.15;1.98;;;;;;;14.81;74.10;100758.66;2040256;28;20079;-77
2022/02/22 01:12:03;;;;;;;7.88;3.17;;;;;;;14.81;73.80;100757.78;2042834;28;20056;-77
2022/02/22 01:13:26;;;;;;;4.80;1.73;;;;;;;14.77;73.96;100751.56;2046061;29;20759;-78
2022/02/22 01:14:49;;;;;;;2.58;0.88;;;;;;;14.76;74.11;100757.81;2039906;29;20051;-77
2022/02/22 01:16:11;;;;;;;3.83;1.10;;;;;;;14.73;74.40;100753.34;2044109;29;20130;-77
2022/02/22 01:17:34;;;;;;;5.80;2.22;;;;;;;14.77;74.07;100759.53;2029496;29;20135;-77
2022/02/22 01:18:56;;;;;;;5.93;3.13;;;;;;;14.76;74.14;100757.81;2040791;29;20101;-77
2022/02/22 01:20:18;;;;;;;7.88;1.63;;;;;;;14.73;73.96;100755.13;2047599;28;20039;-78
2022/02/22 01:21:43;;;;;;;8.77;2.35;;;;;;;14.72;74.09;100750.69;2045234;29;20097;-76
2022/02/22 01:23:04;;;;;;;6.47;2.38;;;;;;;14.70;74.40;100758.66;2044956;28;20070;-77
2022/02/22 01:24:27;;;;;;;7.57;2.30;;;;;;;14.69;74.16;100748.06;2048095;28;20043;-77
2022/02/22 01:25:48;;;;;;;5.88;1.90;;;;;;;14.65;74.47;100743.63;2037164;29;20052;-77
2022/02/22 01:27:10;;;;;;;6.95;2.35;;;;;;;14.64;74.05;100744.50;2029760;29;20127;-77
2022/02/22 01:28:33;;;;;;;5.95;1.38;;;;;;;14.61;74.44;100744.53;2032633;29;20071;-77
2022/02/22 01:29:56;;;;;;;2.17;0.82;;;;;;;14.58;74.13;100734.78;2043169;29;20067;-77
2022/02/22 01:31:17;;;;;;;8.05;1.92;;;;;;;14.55;74.35;100732.13;2039978;29;20067;-77
2022/02/22 01:32:40;;;;;;;2.63;1.02;;;;;;;14.53;74.44;100735.66;2043938;29;20046;-77
2022/02/22 01:34:01;;;;;;;3.92;1.48;;;;;;;14.51;74.37;100738.31;2037773;29;20052;-77
2022/02/22 01:35:24;;;;;;;8.43;2.13;;;;;;;14.50;74.58;100741.00;2027058;29;20056;-77
2022/02/22 01:36:47;;;;;;;6.55;2.15;;;;;;;14.51;74.59;100733.00;2045178;29;20051;-77
2022/02/22 01:38:09;;;;;;;4.90;1.30;;;;;;;14.48;74.91;100730.38;2044645;29;20062;-77
2022/02/22 01:39:32;;;;;;;6.43;1.90;;;;;;;14.47;74.68;100738.34;2037444;29;20059;-77
2022/02/22 01:40:56;;;;;;;3.25;1.58;;;;;;;14.46;75.02;100733.91;2041888;29;20645;-77
2022/02/22 01:42:19;;;;;;;4.88;1.48;;;;;;;14.45;74.90;100735.66;2031935;29;20148;-76
2022/02/22 01:43:41;;;;;;;6.88;2.05;;;;;;;14.46;74.84;100731.25;2035011;29;20146;-78
2022/02/22 01:45:04;;;;;;;6.38;1.45;;;;;;;14.45;74.68;100733.00;2039647;29;20056;-77
2022/02/22 01:46:27;;;;;;;10.30;3.63;;;;;;;14.44;74.63;100725.06;2042389;28;20044;-77
2022/02/22 01:47:49;;;;;;;7.65;2.30;;;;;;;14.43;75.03;100731.28;2044515;29;20138;-76
2022/02/22 01:49:12;;;;;;;7.43;1.75;;;;;;;14.44;75.00;100727.72;2039795;29;20054;-77
2022/02/22 01:50:35;;;;;;;15.07;2.78;;;;;;;14.44;74.87;100723.28;2036741;29;20051;-77
2022/02/22 01:51:59;;;;;;;5.32;1.88;;;;;;;14.43;74.88;100724.19;2039515;29;20040;-76
2022/02/22 01:53:22;;;;;;;10.15;2.30;;;;;;;14.39;74.83;100718.84;2036325;29;20051;-77
2022/02/22 01:54:46;;;;;;;6.47;2.08;;;;;;;14.36;74.92;100720.63;2040332;29;20734;-76
2022/02/22 01:56:09;;;;;;;7.25;2.22;;;;;;;14.34;75.11;100729.47;2036300;29;20696;-77
2022/02/22 01:57:33;;;;;;;9.98;2.17;;;;;;;14.30;74.70;100719.72;2037377;29;20147;-77
2022/02/22 01:58:54;;;;;;;4.93;1.80;;;;;;;14.30;74.87;100715.31;2037006;29;20799;-76
2022/02/22 02:00:17;;;;;;;11.48;3.22;;;;;;;14.30;74.86;100725.03;2042650;29;20050;-77
2022/02/22 02:01:39;;;;;;;6.90;2.35;;;;;;;14.28;75.13;100724.16;2043306;29;20524;-76
2022/02/22 02:03:01;;;;;;;9.85;2.72;;;;;;;14.27;74.93;100719.72;2039735;28;20071;-77
2022/02/22 02:04:29;;;;;;;6.18;2.05;;;;;;;14.26;75.27;100717.94;2047052;29;20138;-78
2022/02/22 02:05:51;;;;;;;3.95;1.45;;;;;;;14.24;75.18;100712.63;2042465;28;20130;-77
2022/02/22 02:07:16;;;;;;;7.25;2.17;;;;;;;14.26;75.19;100702.00;2039678;29;20405;-76
2022/02/22 02:08:38;;;;;;;10.75;2.67;;;;;;;14.25;75.13;100701.13;2044350;29;20141;-77
2022/02/22 02:10:01;;;;;;;3.40;1.50;;;;;;;14.26;75.22;100712.63;2043587;29;20059;-76
2022/02/22 02:11:23;;;;;;;5.55;1.63;;;;;;;14.24;75.55;100709.97;2037031;29;20126;-77
2022/02/22 02:12:46;;;;;;;7.00;2.45;;;;;;;14.25;75.30;100702.88;2034196;28;20090;-77
2022/02/22 02:14:07;;;;;;;4.88;1.83;;;;;;;14.26;75.84;100704.66;2042270;29;20087;-77
2022/02/22 02:15:30;;;;;;;6.47;2.28;;;;;;;14.29;75.72;100708.22;2039437;29;20079;-76
2022/02/22 02:16:54;;;;;;;11.82;1.92;;;;;;;14.30;75.80;100703.81;2029556;29;20055;-77
2022/02/22 02:18:15;;;;;;;4.93;1.48;;;;;;;14.29;75.75;100708.22;2021888;29;20053;-77
2022/02/22 02:19:41;;;;;;;8.48;1.98;;;;;;;14.31;75.65;100713.50;2031432;29;20044;-78
2022/02/22 02:21:04;;;;;;;9.18;2.33;;;;;;;14.28;75.60;100709.09;2041928;29;20118;-78
2022/02/22 02:22:28;;;;;;;4.95;1.70;;;;;;;14.30;75.69;100717.97;2028963;29;20044;-77
2022/02/22 02:23:51;;;;;;;6.00;1.42;;;;;;;14.28;75.82;100717.06;2027087;29;20048;-78
2022/02/22 02:25:14;;;;;;;10.25;2.25;;;;;;;14.30;75.93;100717.06;2042462;29;20067;-76
2022/02/22 02:26:37;;;;;;;7.40;2.00;;;;;;;14.30;75.67;100719.72;2038383;29;20544;-77
2022/02/22 02:28:00;;;;;;;6.82;2.40;;;;;;;14.29;75.67;100717.97;2037440;29;20075;-77
2022/02/22 02:29:24;;;;;;;8.75;1.55;;;;;;;14.30;75.91;100723.28;2029195;29;20052;-77
2022/02/22 02:30:46;;;;;;;8.15;2.50;;;;;;;14.28;75.65;100719.72;2034851;29;20051;-77
2022/02/22 02:32:09;;;;;;;3.80;1.65;;;;;;;14.28;75.95;100722.38;2042497;29;20141;-78
2022/02/22 02:33:32;;;;;;;7.57;1.90;;;;;;;14.26;75.47;100717.94;2036841;29;20048;-78
2022/02/22 02:34:54;;;;;;;9.70;2.70;;;;;;;14.26;75.71;100715.28;2039657;28;20051;-78
2022/02/22 02:36:17;;;;;;;8.93;2.40;;;;;;;14.24;75.45;100709.97;2036830;29;20184;-76
2022/02/22 02:37:43;;;;;;;10.73;3.15;;;;;;;14.25;75.50;100708.19;2032168;29;20143;-78
2022/02/22 02:39:07;;;;;;;4.88;1.52;;;;;;;14.22;75.59;100713.53;2041351;29;20101;-77
2022/02/22 02:40:30;;;;;;;3.47;1.60;;;;;;;14.20;75.49;100712.63;2036801;29;20583;-77
2022/02/22 02:41:51;;;;;;;5.40;2.35;;;;;;;14.19;75.40;100710.88;2033931;29;20106;-77
2022/02/22 02:43:13;;;;;;;10.95;2.72;;;;;;;14.18;75.73;100712.63;2033606;29;20048;-77
2022/02/22 02:44:37;;;;;;;7.20;1.95;;;;;;;14.16;75.77;100716.19;2041932;29;20081;-77
2022/02/22 02:45:59;;;;;;;7.40;1.92;;;;;;;14.14;75.51;100700.25;2044698;28;20067;-77
2022/02/22 02:47:22;;;;;;;6.47;1.95;;;;;;;14.13;75.55;100702.91;2039245;29;20491;-77
2022/02/22 02:48:45;;;;;;;2.72;1.17;;;;;;;14.11;75.63;100697.59;2041815;29;21904;-77
2022/02/22 02:50:08;;;;;;;9.20;2.75;;;;;;;14.11;75.61;100691.41;2033129;29;20147;-77
2022/02/22 02:51:31;;;;;;;5.13;1.63;;;;;;;14.08;75.72;100694.94;2045138;29;20616;-77
2022/02/22 02:52:55;;;;;;;1.63;0.77;;;;;;;14.06;75.52;100699.34;2051560;28;20186;-77
2022/02/22 02:54:18;;;;;;;7.55;1.90;;;;;;;14.05;75.80;100699.34;2047239;28;20055;-77
2022/02/22 02:55:41;;;;;;;5.97;1.42;;;;;;;14.04;75.88;100694.94;2037653;29;20493;-77
2022/02/22 02:57:03;;;;;;;8.77;3.05;;;;;;;14.02;75.75;100699.38;2037240;29;20102;-77
2022/02/22 02:58:26;;;;;;;8.00;2.15;;;;;;;14.02;76.17;100702.03;2045039;29;21216;-77
2022/02/22 02:59:49;;;;;;;5.03;1.67;;;;;;;14.02;75.88;100702.91;2036569;29;20079;-77
2022/02/22 03:01:10;;;;;;;6.15;2.40;;;;;;;14.02;75.76;100709.97;2029341;29;20539;-77
2022/02/22 03:02:33;;;;;;;6.57;1.73;;;;;;;14.04;75.83;100710.88;2050000;28;20035;-77
2022/02/22 03:03:54;;;;;;;6.32;1.80;;;;;;;14.05;75.82;100704.66;2042280;29;20051;-77
2022/02/22 03:05:18;;;;;;;10.85;2.90;;;;;;;14.06;75.92;100709.09;2036806;29;20635;-77
2022/02/22 03:06:41;;;;;;;10.07;2.38;;;;;;;14.06;75.71;100715.28;2042225;28;20672;-77
2022/02/22 03:08:05;;;;;;;9.90;3.70;;;;;;;14.09;76.20;100725.03;2048169;28;20051;-77
2022/02/22 03:09:27;;;;;;;6.63;2.55;;;;;;;14.05;75.91;100715.28;2047216;28;20043;-77
2022/02/22 03:10:50;;;;;;;4.43;2.20;;;;;;;14.16;75.58;100719.72;2044672;29;20043;-77
2022/02/22 03:12:12;;;;;;;4.97;2.70;;;;;;;14.07;75.68;100714.41;2039250;29;20143;-76
2022/02/22 03:13:35;;;;;;;9.00;2.53;;;;;;;14.13;75.31;100714.41;2037181;29;20040;-77
2022/02/22 03:14:57;;;;;;;7.13;2.72;;;;;;;14.08;75.92;100708.22;2041952;29;20055;-77
2022/02/22 03:16:20;;;;;;;6.53;2.53;;;;;;;14.01;75.73;100709.09;2052277;28;20050;-78
2022/02/22 03:17:42;;;;;;;9.40;3.15;;;;;;;14.09;75.32;100715.31;2047489;28;20047;-77
2022/02/22 03:19:05;;;;;;;9.57;2.70;;;;;;;13.91;75.41;100712.66;2039292;29;20578;-77
2022/02/22 03:20:27;;;;;;;16.10;2.80;;;;;;;13.84;75.98;100705.56;2044578;29;20108;-77
2022/02/22 03:21:50;;;;;;;11.27;3.22;;;;;;;13.79;76.30;100702.88;2039182;28;20076;-78
2022/02/22 03:23:16;;;;;;;5.40;1.67;;;;;;;13.78;76.27;100703.78;2038045;29;20130;-77
2022/02/22 03:24:40;;;;;;;8.38;2.85;;;;;;;13.71;76.16;100699.34;2044936;28;20051;-78
2022/02/22 03:26:02;;;;;;;8.02;2.70;;;;;;;13.78;76.18;100690.50;2036751;29;20044;-77
2022/02/22 03:27:25;;;;;;;10.00;2.85;;;;;;;13.86;75.95;100685.19;2042323;28;20073;-77
2022/02/22 03:28:46;;;;;;;8.35;2.53;;;;;;;13.89;75.88;100679.91;2036881;29;20419;-77
2022/02/22 03:30:10;;;;;;;6.70;1.25;;;;;;;13.77;75.97;100682.53;2044715;29;20050;-76
2022/02/22 03:31:33;;;;;;;6.07;1.88;;;;;;;13.73;76.41;100672.78;2038389;29;20055;-77
2022/02/22 03:32:55;;;;;;;3.80;2.42;;;;;;;13.77;76.59;100674.59;2043937;28;20055;-78
2022/02/22 03:34:18;;;;;;;4.18;1.42;;;;;;;13.72;76.70;100684.31;2054228;28;20454;-77
2022/02/22 03:35:40;;;;;;;8.40;2.63;;;;;;;13.97;76.21;100678.13;2056639;28;20540;-78
2022/02/22 03:37:02;;;;;;;;;;;;;;;13.82;76.28;100681.66;2047145;29;20061;-78
2022/02/22 03:38:27;;;;;;;9.55;2.35;;;;;;;13.77;76.83;100674.59;2038194;29;19923;-76
2022/02/22 03:39:48;;;;;;;7.15;2.85;;;;;;;13.71;76.73;100674.59;2043363;29;20560;-77
2022/02/22 03:41:10;;;;;;;7.68;2.38;;;;;;;13.77;76.93;100672.81;2044712;29;20427;-78
2022/02/22 03:42:33;;;;;;;5.43;2.47;;;;;;;13.72;77.17;100673.69;2040743;29;20048;-77
2022/02/22 03:43:55;;;;;;;3.20;1.58;;;;;;;13.71;77.10;100669.28;2038496;29;20146;-78
2022/02/22 03:45:18;;;;;;;4.60;2.20;;;;;;;13.92;76.84;100669.28;2046212;29;20146;-77
2022/02/22 03:46:41;;;;;;;6.35;1.60;;;;;;;13.83;76.75;100669.28;2032763;29;20064;-77
2022/02/22 03:48:03;;;;;;;10.02;2.70;;;;;;;13.74;77.08;100670.16;2035548;29;20460;-77
2022/02/22 03:49:25;;;;;;;4.03;2.00;;;;;;;13.73;77.42;100680.75;2043185;28;20058;-77
2022/02/22 03:50:48;;;;;;;7.65;2.65;;;;;;;13.73;77.42;100676.34;2039770;29;20075;-77
2022/02/22 03:52:11;;;;;;;10.93;2.58;;;;;;;13.88;77.50;100678.13;2038445;29;20177;-77
2022/02/22 03:53:35;;;;;;;8.75;2.50;;;;;;;14.04;76.91;100676.38;2043069;28;20035;-77
2022/02/22 03:54:56;;;;;;;9.00;3.08;;;;;;;13.93;76.59;100684.31;2046033;29;20055;-77
2022/02/22 03:56:18;;;;;;;5.72;2.08;;;;;;;14.02;76.71;100678.13;2037909;29;20142;-77
2022/02/22 03:57:42;;;;;;;8.15;2.72;;;;;;;13.93;76.72;100684.31;2027775;29;20143;-77
2022/02/22 03:59:04;;;;;;;11.15;2.60;;;;;;;13.90;76.81;100685.22;2038975;29;20054;-77
2022/02/22 04:00:28;;;;;;;8.32;3.25;;;;;;;13.91;76.97;100683.44;2032808;29;20143;-77
2022/02/22 04:01:53;;;;;;;7.57;2.10;;;;;;;13.87;77.11;100685.19;2049100;28;20117;-77
2022/02/22 04:03:16;;;;;;;9.07;3.13;;;;;;;13.87;77.09;100682.53;2040748;29;20066;-77
2022/02/22 04:04:38;;;;;;;6.95;2.15;;;;;;;13.75;76.89;100674.56;2037880;29;20612;-76
2022/02/22 04:06:00;;;;;;;7.28;3.00;;;;;;;13.73;77.41;100678.09;2038263;29;20086;-76
2022/02/22 04:07:22;;;;;;;14.40;3.13;;;;;;;13.71;77.62;100674.59;2037765;29;20162;-77
2022/02/22 04:08:47;;;;;;;5.05;2.40;;;;;;;13.81;77.70;100669.28;2038021;29;20048;-77
2022/02/22 04:10:11;;;;;;;9.52;3.20;;;;;;;13.71;77.78;100661.31;2034589;29;20136;-77
2022/02/22 04:11:34;;;;;;;10.15;2.78;;;;;;;13.68;77.61;100666.59;2035917;29;20047;-77
2022/02/22 04:12:55;;;;;;;8.18;2.90;;;;;;;13.77;77.75;100664.88;2035922;29;20047;-77
2022/02/22 04:14:18;;;;;;;10.45;3.90;;;;;;;13.65;77.71;100659.56;2053225;28;20127;-77
2022/02/22 04:15:41;;;;;;;5.00;2.13;;;;;;;13.65;77.86;100659.56;2056422;28;20104;-77
2022/02/22 04:17:04;;;;;;;12.38;3.42;;;;;;;13.65;77.97;100648.94;2040375;29;20048;-77
2022/02/22 04:18:27;;;;;;;7.80;2.95;;;;;;;13.68;77.78;100640.97;2045848;28;20047;-77
2022/02/22 04:19:49;;;;;;;9.85;3.72;;;;;;;13.62;77.89;100638.31;2045028;29;20560;-77
2022/02/22 04:21:12;;;;;;;5.93;2.40;;;;;;;13.62;78.09;100642.72;2030137;29;20055;-77
2022/02/22 04:22:34;;;;;;;6.60;2.88;;;;;;;13.66;77.88;100640.06;2042449;29;20063;-77
2022/02/22 04:24:00;;;;;;;6.07;2.55;;;;;;;13.67;77.93;100640.97;2038204;29;20048;-77
2022/02/22 04:25:22;;;;;;;9.88;3.20;;;;;;;13.62;78.15;100640.97;2046283;29;20051;-78
2022/02/22 04:26:45;;;;;;;12.13;3.85;;;;;;;13.84;78.10;100634.81;2044875;29;20569;-78
2022/02/22 04:28:08;;;;;;;8.75;3.08;;;;;;;13.93;77.58;100634.78;2053132;28;20121;-78
2022/02/22 04:29:30;;;;;;;13.60;3.53;;;;;;;13.87;77.35;100641.84;2048539;28;20566;-77
2022/02/22 04:30:53;;;;;;;4.90;2.30;;;;;;;13.91;77.34;100644.50;2045631;29;20113;-76
2022/02/22 04:32:14;;;;;;;3.80;2.03;;;;;;;14.03;77.43;100648.94;2045803;29;20097;-78
2022/02/22 04:33:36;;;;;;;8.32;2.67;;;;;;;14.07;77.36;100655.13;2045873;29;20055;-77
2022/02/22 04:34:58;;;;;;;8.75;3.38;;;;;;;13.81;77.75;100649.81;2053937;28;20046;-77
2022/02/22 04:36:21;;;;;;;22.88;2.90;;;;;;;13.90;78.00;100650.72;2048314;28;20746;-77
2022/02/22 04:37:43;;;;;;;7.80;2.55;;;;;;;13.89;77.71;100654.25;2045347;29;20039;-76
2022/02/22 04:39:06;;;;;;;10.50;3.97;;;;;;;13.90;78.08;100661.34;2046008;29;20098;-77
2022/02/22 04:40:30;;;;;;;8.88;2.25;;;;;;;13.89;77.85;100659.56;2045986;29;20047;-77
2022/02/22 04:41:53;;;;;;;5.68;2.38;;;;;;;13.89;77.82;100656.91;2030519;29;20512;-77
2022/02/22 04:43:15;;;;;;;7.57;2.70;;;;;;;13.87;77.69;100666.63;2034169;29;20047;-77
2022/02/22 04:44:38;;;;;;;13.55;4.13;;;;;;;13.89;77.73;100670.16;2037680;29;20534;-77
2022/02/22 04:46:01;;;;;;;7.00;3.58;;;;;;;13.89;77.97;100677.25;2045579;28;20066;-77
2022/02/22 04:47:22;;;;;;;7.65;2.88;;;;;;;13.91;78.15;100668.38;2037756;29;20612;-77
2022/02/22 04:48:45;;;;;;;11.65;3.30;;;;;;;13.93;77.67;100679.00;2048116;28;20047;-77
2022/02/22 04:50:08;;;;;;;9.55;3.25;;;;;;;13.92;77.97;100670.16;2048236;28;20059;-77
2022/02/22 04:51:31;;;;;;;6.28;3.03;;;;;;;13.92;77.91;100672.81;2046958;29;20061;-77
2022/02/22 04:52:54;;;;;;;6.10;3.20;;;;;;;13.96;77.88;100684.34;2037248;29;20055;-77
2022/02/22 04:54:19;;;;;;;4.70;2.50;;;;;;;13.96;78.37;100681.69;2035706;29;20059;-77
2022/02/22 04:55:42;;;;;;;8.77;2.38;;;;;;;13.95;77.92;100683.44;2042865;29;20146;-76
2022/02/22 04:57:05;;;;;;;10.77;3.17;;;;;;;13.96;77.89;100686.97;2044153;29;20043;-77
2022/02/22 04:58:28;;;;;;;4.65;1.67;;;;;;;13.94;77.97;100686.97;2043754;29;20598;-77
2022/02/22 04:59:51;;;;;;;8.43;2.95;;;;;;;13.94;78.22;100689.63;2038467;29;20044;-77
2022/02/22 05:01:12;;;;;;;5.88;2.67;;;;;;;13.97;78.49;100680.81;2027579;29;20505;-77
2022/02/22 05:02:34;;;;;;;7.95;3.10;;;;;;;14.00;78.17;100674.59;2028928;29;20138;-77
2022/02/22 05:03:57;;;;;;;5.07;2.95;;;;;;;14.05;78.10;100681.66;2042776;29;20050;-77
2022/02/22 05:05:19;;;;;;;5.88;2.30;;;;;;;14.11;77.89;100679.00;2048246;28;20488;-78
2022/02/22 05:06:41;;;;;;;9.02;3.20;;;;;;;14.17;78.03;100681.69;2045387;28;20122;-77
2022/02/22 05:08:03;;;;;;;8.60;2.22;;;;;;;14.20;77.57;100684.31;2044780;28;20411;-78
2022/02/22 05:09:27;;;;;;;8.52;2.95;;;;;;;14.26;77.41;100691.41;2045747;28;20644;-76
2022/02/22 05:10:50;;;;;;;4.57;2.13;;;;;;;14.26;77.62;100686.97;2035755;29;20078;-77
2022/02/22 05:12:13;;;;;;;5.75;2.15;;;;;;;14.28;77.26;100684.31;2051030;28;20138;-77
2022/02/22 05:13:36;;;;;;;6.07;1.92;;;;;;;14.28;77.08;100682.56;2048149;28;20058;-77
2022/02/22 05:14:58;;;;;;;8.52;2.33;;;;;;;14.28;77.27;100681.66;2045362;29;20051;-77
2022/02/22 05:16:20;;;;;;;9.85;2.55;;;;;;;14.28;77.10;100686.97;2043489;29;20035;-77
2022/02/22 05:17:43;;;;;;;12.20;3.75;;;;;;;14.28;77.13;100679.91;2039863;29;20063;-78
2022/02/22 05:19:06;;;;;;;5.90;2.80;;;;;;;14.30;77.49;100679.91;2037412;29;20043;-77
2022/02/22 05:20:29;;;;;;;9.35;4.00;;;;;;;14.31;77.43;100682.53;2043038;28;20054;-78
2022/02/22 05:21:51;;;;;;;5.40;1.92;;;;;;;14.30;77.62;100686.09;2050917;28;20101;-78
2022/02/22 05:23:14;;;;;;;9.55;3.00;;;;;;;14.33;77.27;100696.69;2040208;29;20617;-77
2022/02/22 05:24:38;;;;;;;12.35;4.43;;;;;;;14.38;77.34;100694.06;2045202;28;20057;-77
2022/02/22 05:25:59;;;;;;;13.85;5.63;;;;;;;14.41;77.02;100701.16;2040116;29;20543;-77
2022/02/22 05:27:22;;;;;;;15.93;6.25;;;;;;;14.37;77.19;100694.94;2040786;29;20141;-78
2022/02/22 05:28:46;;;;;;;12.68;6.15;;;;;;;14.34;77.01;100684.31;2037434;29;20138;-77
2022/02/22 05:30:10;;;;;;;18.73;7.95;;;;;;;14.32;77.01;100680.75;2051243;28;20105;-78
2022/02/22 05:31:33;;;;;;;13.88;7.07;;;;;;;14.29;77.02;100678.13;2039517;29;20783;-77
2022/02/22 05:32:56;;;;;;;14.18;6.53;;;;;;;14.29;77.09;100667.50;2045558;28;20059;-77
2022/02/22 05:34:18;;;;;;;16.85;8.75;;;;;;;14.30;77.35;100672.81;2037589;29;20046;-77
2022/02/22 05:35:40;;;;;;;10.27;4.38;;;;;;;14.31;77.37;100669.25;2050227;28;20034;-76
2022/02/22 05:37:03;;;;;;;8.50;3.75;;;;;;;14.34;77.10;100658.63;2039643;29;20044;-77
2022/02/22 05:38:26;;;;;;;12.85;4.13;;;;;;;14.35;77.11;100672.81;2042993;29;20050;-77
2022/02/22 05:39:50;;;;;;;15.13;5.45;;;;;;;14.38;77.32;100671.94;2040126;29;20056;-77
2022/02/22 05:41:17;;;;;;;9.70;4.75;;;;;;;14.46;77.53;100667.50;2040747;29;20050;-77
2022/02/22 05:42:40;;;;;;;13.90;4.43;;;;;;;14.50;77.23;100664.84;2045919;28;20522;-78
2022/02/22 05:44:03;;;;;;;13.65;7.47;;;;;;;14.59;77.16;100671.91;2032126;29;20052;-77
2022/02/22 05:45:26;;;;;;;12.30;5.68;;;;;;;14.69;77.40;100665.69;2038440;29;20145;-77
2022/02/22 05:46:49;;;;;;;10.75;4.30;;;;;;;14.85;77.55;100675.38;2039464;29;20046;-77
2022/02/22 05:48:11;;;;;;;13.48;4.57;;;;;;;14.94;77.54;100686.00;2031198;29;20166;-78
2022/02/22 05:49:34;;;;;;;10.48;3.80;;;;;;;15.04;77.25;100674.41;2035180;29;20114;-78
2022/02/22 05:50:56;;;;;;;11.23;3.97;;;;;;;15.21;77.37;100671.69;2037240;28;20448;-78
2022/02/22 05:52:18;;;;;;;10.70;3.58;;;;;;;15.39;77.70;100670.72;2044981;28;20546;-78
2022/02/22 05:53:41;;;;;;;12.23;4.45;;;;;;;15.53;76.96;100668.88;2036852;28;20064;-78
2022/02/22 05:55:06;;;;;;;6.82;2.58;;;;;;;15.68;76.95;100660.81;2050817;28;20046;-77
2022/02/22 05:56:29;;;;;;;10.00;3.65;;;;;;;15.82;76.98;100650.03;2039253;29;20150;-77
2022/02/22 05:57:51;;;;;;;8.35;3.17;;;;;;;15.98;76.25;100646.38;2044918;29;20043;-77
2022/02/22 05:59:14;;;;;;;12.30;3.63;;;;;;;16.09;75.92;100651.59;2036993;29;20751;-78
2022/02/22 06:00:37;;;;;;;11.07;4.00;;;;;;;16.20;75.89;100644.41;2042540;28;20061;-78
2022/02/22 06:02:00;;;;;;;9.05;4.60;;;;;;;16.37;75.54;100641.56;2037410;29;20050;-78
2022/02/22 06:03:21;;;;;;;5.82;3.40;;;;;;;16.49;75.25;100642.31;2036941;29;20044;-78
2022/02/22 06:04:44;;;;;;;12.13;3.55;;;;;;;16.59;74.41;100637.81;2042586;29;20083;-78
2022/02/22 06:06:06;;;;;;;12.63;3.85;;;;;;;16.65;73.59;100627.97;2036332;29;20126;-78
2022/02/22 06:07:29;;;;;;;10.30;4.07;;;;;;;16.70;73.29;100633.25;2034252;29;20054;-78
2022/02/22 06:08:52;;;;;;;7.35;3.45;;;;;;;16.73;72.75;100631.44;2037080;29;20115;-78
2022/02/22 06:10:17;;;;;;;10.70;3.38;;;;;;;16.83;72.34;100631.31;2045276;28;20495;-77
2022/02/22 06:11:40;;;;;;;11.10;3.75;;;;;;;16.89;71.73;100624.13;2045365;28;20476;-77
2022/02/22 06:13:01;;;;;;;11.15;3.95;;;;;;;16.96;71.38;100624.94;2049105;28;20443;-78
2022/02/22 06:14:24;;;;;;;7.00;3.38;;;;;;;17.02;71.24;100619.53;2043618;29;20087;-78
2022/02/22 06:15:47;;;;;;;11.70;4.47;;;;;;;17.15;70.73;100613.13;2032687;29;20080;-78
2022/02/22 06:17:09;;;;;;;8.95;3.22;;;;;;;17.19;70.11;100609.53;2036828;29;20050;-78
2022/02/22 06:18:32;;;;;;;13.75;3.20;;;;;;;17.22;69.57;100612.13;2037134;29;20192;-78
2022/02/22 06:19:57;;;;;;;10.30;3.35;;;;;;;17.26;69.17;100595.19;2044840;29;20043;-78
2022/02/22 06:21:20;;;;;;;10.27;4.00;;;;;;;17.29;68.94;100595.13;2045163;29;20097;-78
2022/02/22 06:22:43;;;;;;;8.98;3.58;;;;;;;17.35;68.50;100605.72;2044299;29;20118;-78
2022/02/22 06:24:07;;;;;;;11.20;3.65;;;;;;;17.44;68.31;100592.25;2036607;29;20103;-77